Terminal Aerodrome Forecast
Issued by NWS

Home | Current Version | Previous Version | Text Only | Print | Product List | Glossary Off
Versions: 1 2 3 4 5 6 7 8 9 10 11 12 13 14 15 16 17 18 19 20

000
FTUS43 KABR 220500
TAFATY
TAF
KATY 220525Z 2206/2306 13005KT P6SM SKC
     FM221700 15013KT P6SM SKC
     FM222100 15018G27KT P6SM BKN150=

USA.gov is the U.S. government's official web portal to all federal, state and local government web resources and services.